sensor_id;sensor_type;location;lat;lon;timestamp;pressure;altitude;pressure_sealevel;temperature;humidity
9774;BME280;4926;42.670;23.316;2023-04-09T00:01:10;94727.69;;;7.29;100.00
9774;BME280;4926;42.670;23.316;2023-04-09T00:03:37;94731.91;;;7.25;100.00
9774;BME280;4926;42.670;23.316;2023-04-09T00:06:05;94735.91;;;7.27;100.00
9774;BME280;4926;42.670;23.316;2023-04-09T00:08:31;94739.09;;;7.49;100.00
9774;BME280;4926;42.670;23.316;2023-04-09T00:11:00;94739.91;;;7.55;100.00
9774;BME280;4926;42.670;23.316;2023-04-09T00:13:26;94743.34;;;7.55;100.00
9774;BME280;4926;42.670;23.316;2023-04-09T00:15:58;94741.75;;;7.54;100.00
9774;BME280;4926;42.670;23.316;2023-04-09T00:18:25;94749.69;;;7.59;100.00
9774;BME280;4926;42.670;23.316;2023-04-09T00:20:51;94745.47;;;7.68;100.00
9774;BME280;4926;42.670;23.316;2023-04-09T00:23:18;94743.63;;;7.64;100.00
9774;BME280;4926;42.670;23.316;2023-04-09T00:25:45;94748.41;;;7.62;100.00
9774;BME280;4926;42.670;23.316;2023-04-09T00:28:13;94740.38;;;7.32;100.00
9774;BME280;4926;42.670;23.316;2023-04-09T00:30:40;94741.72;;;7.29;100.00
9774;BME280;4926;42.670;23.316;2023-04-09T00:33:07;94738.53;;;7.32;100.00
9774;BME280;4926;42.670;23.316;2023-04-09T00:35:35;94745.47;;;7.43;100.00
9774;BME280;4926;42.670;23.316;2023-04-09T00:38:04;94752.88;;;7.51;100.00
9774;BME280;4926;42.670;23.316;2023-04-09T00:40:31;94746.78;;;7.41;100.00
9774;BME280;4926;42.670;23.316;2023-04-09T00:43:00;94746.50;;;7.42;100.00
9774;BME280;4926;42.670;23.316;2023-04-09T00:45:28;94748.13;;;7.48;100.00
9774;BME280;4926;42.670;23.316;2023-04-09T00:48:00;94744.94;;;7.46;100.00
9774;BME280;4926;42.670;23.316;2023-04-09T00:50:26;94746.50;;;7.37;100.00
9774;BME280;4926;42.670;23.316;2023-04-09T00:52:53;94746.78;;;7.41;100.00
9774;BME280;4926;42.670;23.316;2023-04-09T00:55:22;94741.19;;;7.37;100.00
9774;BME280;4926;42.670;23.316;2023-04-09T00:57:52;94750.69;;;7.23;100.00
9774;BME280;4926;42.670;23.316;2023-04-09T01:00:19;94754.88;;;7.04;100.00
9774;BME280;4926;42.670;23.316;2023-04-09T01:02:47;94749.00;;;6.87;100.00
9774;BME280;4926;42.670;23.316;2023-04-09T01:05:18;94739.97;;;6.78;100.00
9774;BME280;4926;42.670;23.316;2023-04-09T01:07:53;94741.53;;;6.74;100.00
9774;BME280;4926;42.670;23.316;2023-04-09T01:10:33;94751.56;;;6.72;100.00
9774;BME280;4926;42.670;23.316;2023-04-09T01:13:06;94747.63;;;6.74;100.00
9774;BME280;4926;42.670;23.316;2023-04-09T01:15:38;94747.66;;;6.85;100.00
9774;BME280;4926;42.670;23.316;2023-04-09T01:18:10;94759.34;;;6.99;100.00
9774;BME280;4926;42.670;23.316;2023-04-09T01:20:45;94754.31;;;6.92;100.00
9774;BME280;4926;42.670;23.316;2023-04-09T01:23:19;94756.41;;;6.90;100.00
9774;BME280;4926;42.670;23.316;2023-04-09T01:26:00;94756.16;;;6.92;100.00
9774;BME280;4926;42.670;23.316;2023-04-09T01:28:32;94757.72;;;6.88;100.00
9774;BME280;4926;42.670;23.316;2023-04-09T01:31:09;94757.00;;;7.07;100.00
9774;BME280;4926;42.670;23.316;2023-04-09T01:33:38;94750.16;;;7.16;100.00
9774;BME280;4926;42.670;23.316;2023-04-09T01:36:07;94747.25;;;7.23;100.00
9774;BME280;4926;42.670;23.316;2023-04-09T01:38:34;94747.03;;;7.34;100.00
9774;BME280;4926;42.670;23.316;2023-04-09T01:41:02;94738.00;;;7.25;100.00
9774;BME280;4926;42.670;23.316;2023-04-09T01:43:33;94759.72;;;7.22;100.00
9774;BME280;4926;42.670;23.316;2023-04-09T01:46:03;94757.34;;;7.26;100.00
9774;BME280;4926;42.670;23.316;2023-04-09T01:48:33;94754.19;;;7.39;100.00
9774;BME280;4926;42.670;23.316;2023-04-09T01:51:00;94757.38;;;7.41;100.00
9774;BME280;4926;42.670;23.316;2023-04-09T01:53:27;94755.00;;;7.49;100.00
9774;BME280;4926;42.670;23.316;2023-04-09T01:55:58;94757.66;;;7.54;100.00
9774;BME280;4926;42.670;23.316;2023-04-09T01:58:26;94760.84;;;7.56;100.00
9774;BME280;4926;42.670;23.316;2023-04-09T02:00:58;94756.59;;;7.50;100.00
9774;BME280;4926;42.670;23.316;2023-04-09T02:03:33;94751.53;;;7.44;100.00
9774;BME280;4926;42.670;23.316;2023-04-09T02:06:08;94756.56;;;7.40;100.00
9774;BME280;4926;42.670;23.316;2023-04-09T02:08:43;94761.56;;;7.27;100.00
9774;BME280;4926;42.670;23.316;2023-04-09T02:11:13;94756.53;;;7.20;100.00
9774;BME280;4926;42.670;23.316;2023-04-09T02:13:41;94758.66;;;7.28;100.00
9774;BME280;4926;42.670;23.316;2023-04-09T02:16:20;94761.25;;;7.13;100.00
9774;BME280;4926;42.670;23.316;2023-04-09T02:18:49;94756.44;;;7.00;100.00
9774;BME280;4926;42.670;23.316;2023-04-09T02:21:18;94753.75;;;6.85;100.00
9774;BME280;4926;42.670;23.316;2023-04-09T02:23:50;94743.59;;;6.67;100.00
9774;BME280;4926;42.670;23.316;2023-04-09T02:26:17;94750.25;;;6.69;100.00
9774;BME280;4926;42.670;23.316;2023-04-09T02:28:52;94750.97;;;6.60;100.00
9774;BME280;4926;42.670;23.316;2023-04-09T02:31:20;94755.22;;;6.56;100.00
9774;BME280;4926;42.670;23.316;2023-04-09T02:33:47;94754.69;;;6.59;100.00
9774;BME280;4926;42.670;23.316;2023-04-09T02:36:15;94756.81;;;6.67;100.00
9774;BME280;4926;42.670;23.316;2023-04-09T02:38:42;94751.84;;;6.75;100.00
9774;BME280;4926;42.670;23.316;2023-04-09T02:41:09;94748.16;;;6.76;100.00
9774;BME280;4926;42.670;23.316;2023-04-09T02:43:38;94746.81;;;6.74;100.00
9774;BME280;4926;42.670;23.316;2023-04-09T02:46:06;94752.63;;;6.71;100.00
9774;BME280;4926;42.670;23.316;2023-04-09T02:48:34;94747.00;;;6.57;100.00
9774;BME280;4926;42.670;23.316;2023-04-09T02:51:00;94748.84;;;6.52;100.00
9774;BME280;4926;42.670;23.316;2023-04-09T02:53:29;94734.44;;;6.33;100.00
9774;BME280;4926;42.670;23.316;2023-04-09T02:55:59;94734.94;;;6.30;100.00
9774;BME280;4926;42.670;23.316;2023-04-09T02:58:32;94740.72;;;6.22;100.00
9774;BME280;4926;42.670;23.316;2023-04-09T03:00:58;94748.06;;;6.15;100.00
9774;BME280;4926;42.670;23.316;2023-04-09T03:03:25;94745.91;;;6.07;100.00
9774;BME280;4926;42.670;23.316;2023-04-09T03:05:53;94743.72;;;5.99;100.00
9774;BME280;4926;42.670;23.316;2023-04-09T03:08:20;94738.41;;;5.94;100.00
9774;BME280;4926;42.670;23.316;2023-04-09T03:10:46;94741.03;;;5.94;100.00
9774;BME280;4926;42.670;23.316;2023-04-09T03:13:13;94737.88;;;5.97;100.00
9774;BME280;4926;42.670;23.316;2023-04-09T03:15:40;94725.13;;;5.84;100.00
9774;BME280;4926;42.670;23.316;2023-04-09T03:18:07;94731.94;;;5.80;100.00
9774;BME280;4926;42.670;23.316;2023-04-09T03:20:36;94742.59;;;5.90;100.00
9774;BME280;4926;42.670;23.316;2023-04-09T03:23:04;94744.19;;;5.91;100.00
9774;BME280;4926;42.670;23.316;2023-04-09T03:25:33;94743.91;;;5.87;100.00
9774;BME280;4926;42.670;23.316;2023-04-09T03:28:00;94739.38;;;5.83;100.00
9774;BME280;4926;42.670;23.316;2023-04-09T03:30:27;94744.47;;;5.89;100.00
9774;BME280;4926;42.670;23.316;2023-04-09T03:32:57;94743.44;;;5.95;100.00
9774;BME280;4926;42.670;23.316;2023-04-09T03:35:26;94738.88;;;5.86;100.00
9774;BME280;4926;42.670;23.316;2023-04-09T03:37:53;94737.28;;;5.85;100.00
9774;BME280;4926;42.670;23.316;2023-04-09T03:40:21;94736.78;;;5.88;100.00
9774;BME280;4926;42.670;23.316;2023-04-09T03:42:48;94739.38;;;5.83;100.00
9774;BME280;4926;42.670;23.316;2023-04-09T03:45:17;94739.66;;;5.86;100.00
9774;BME280;4926;42.670;23.316;2023-04-09T03:47:44;94722.22;;;5.85;100.00
9774;BME280;4926;42.670;23.316;2023-04-09T03:50:10;94734.09;;;5.83;100.00
9774;BME280;4926;42.670;23.316;2023-04-09T03:52:42;94748.13;;;5.88;100.00
9774;BME280;4926;42.670;23.316;2023-04-09T03:55:09;94751.31;;;5.90;100.00
9774;BME280;4926;42.670;23.316;2023-04-09T03:57:37;94746.00;;;5.85;100.00
9774;BME280;4926;42.670;23.316;2023-04-09T04:00:05;94743.34;;;5.85;100.00
9774;BME280;4926;42.670;23.316;2023-04-09T04:02:32;94744.66;;;5.83;100.00
9774;BME280;4926;42.670;23.316;2023-04-09T04:05:01;94750.81;;;5.93;100.00
9774;BME280;4926;42.670;23.316;2023-04-09T04:07:31;94749.47;;;5.91;100.00
9774;BME280;4926;42.670;23.316;2023-04-09T04:09:57;94757.47;;;6.01;100.00
9774;BME280;4926;42.670;23.316;2023-04-09T04:12:26;94755.34;;;5.98;100.00
9774;BME280;4926;42.670;23.316;2023-04-09T04:14:54;94755.88;;;5.95;100.00
9774;BME280;4926;42.670;23.316;2023-04-09T04:17:23;94755.31;;;5.93;100.00
9774;BME280;4926;42.670;23.316;2023-04-09T04:19:50;94760.84;;;5.91;100.00
9774;BME280;4926;42.670;23.316;2023-04-09T04:22:17;94753.81;;;6.02;100.00
9774;BME280;4926;42.670;23.316;2023-04-09T04:24:43;94758.56;;;6.05;100.00
9774;BME280;4926;42.670;23.316;2023-04-09T04:27:10;94763.59;;;6.06;100.00
9774;BME280;4926;42.670;23.316;2023-04-09T04:29:37;94763.13;;;6.14;100.00
9774;BME280;4926;42.670;23.316;2023-04-09T04:32:05;94755.47;;;6.18;100.00
9774;BME280;4926;42.670;23.316;2023-04-09T04:34:32;94763.53;;;6.33;100.00
9774;BME280;4926;42.670;23.316;2023-04-09T04:37:00;94760.88;;;6.33;100.00
9774;BME280;4926;42.670;23.316;2023-04-09T04:39:26;94757.63;;;6.21;100.00
9774;BME280;4926;42.670;23.316;2023-04-09T04:41:53;94764.75;;;6.20;100.00
9774;BME280;4926;42.670;23.316;2023-04-09T04:44:22;94756.72;;;6.42;100.00
9774;BME280;4926;42.670;23.316;2023-04-09T04:46:49;94754.63;;;6.49;100.00
9774;BME280;4926;42.670;23.316;2023-04-09T04:49:17;94767.22;;;6.37;100.00
9774;BME280;4926;42.670;23.316;2023-04-09T04:51:44;94757.75;;;6.41;100.00
9774;BME280;4926;42.670;23.316;2023-04-09T04:54:10;94761.47;;;6.45;100.00
9774;BME280;4926;42.670;23.316;2023-04-09T04:56:40;94765.69;;;6.46;100.00
9774;BME280;4926;42.670;23.316;2023-04-09T04:59:06;94758.88;;;6.55;100.00
9774;BME280;4926;42.670;23.316;2023-04-09T05:01:33;94770.06;;;6.67;100.00
9774;BME280;4926;42.670;23.316;2023-04-09T05:04:00;94763.25;;;6.86;100.00
9774;BME280;4926;42.670;23.316;2023-04-09T05:06:29;94761.25;;;7.03;100.00
9774;BME280;4926;42.670;23.316;2023-04-09T05:08:59;94765.22;;;7.16;100.00
9774;BME280;4926;42.670;23.316;2023-04-09T05:11:26;94776.09;;;7.19;100.00
9774;BME280;4926;42.670;23.316;2023-04-09T05:13:52;94772.44;;;7.30;100.00
9774;BME280;4926;42.670;23.316;2023-04-09T05:16:19;94763.94;;;7.28;100.00
9774;BME280;4926;42.670;23.316;2023-04-09T05:18:46;94779.81;;;7.18;100.00
9774;BME280;4926;42.670;23.316;2023-04-09T05:21:13;94783.53;;;7.27;100.00
9774;BME280;4926;42.670;23.316;2023-04-09T05:23:41;94769.22;;;7.18;100.00
9774;BME280;4926;42.670;23.316;2023-04-09T05:26:09;94761.28;;;7.23;100.00
9774;BME280;4926;42.670;23.316;2023-04-09T05:28:36;94777.75;;;7.45;100.00
9774;BME280;4926;42.670;23.316;2023-04-09T05:31:03;94764.56;;;7.60;100.00
9774;BME280;4926;42.670;23.316;2023-04-09T05:33:34;94777.25;;;7.53;100.00
9774;BME280;4926;42.670;23.316;2023-04-09T05:36:02;94774.59;;;7.48;100.00
9774;BME280;4926;42.670;23.316;2023-04-09T05:38:29;94767.19;;;7.50;100.00
9774;BME280;4926;42.670;23.316;2023-04-09T05:41:00;94773.31;;;7.61;100.00
9774;BME280;4926;42.670;23.316;2023-04-09T05:43:27;94779.41;;;7.71;100.00
9774;BME280;4926;42.670;23.316;2023-04-09T05:45:53;94768.28;;;7.69;100.00
9774;BME280;4926;42.670;23.316;2023-04-09T05:48:20;94783.66;;;7.77;100.00
9774;BME280;4926;42.670;23.316;2023-04-09T05:50:48;94780.22;;;7.97;100.00
9774;BME280;4926;42.670;23.316;2023-04-09T05:53:16;94784.19;;;8.00;100.00
9774;BME280;4926;42.670;23.316;2023-04-09T05:55:46;94779.94;;;8.09;100.00
9774;BME280;4926;42.670;23.316;2023-04-09T05:58:14;94770.94;;;8.10;100.00
9774;BME280;4926;42.670;23.316;2023-04-09T06:00:45;94771.47;;;8.07;100.00
9774;BME280;4926;42.670;23.316;2023-04-09T06:03:12;94773.06;;;8.03;100.00
9774;BME280;4926;42.670;23.316;2023-04-09T06:05:41;94781.53;;;7.74;100.00
9774;BME280;4926;42.670;23.316;2023-04-09T06:08:10;94778.88;;;7.69;100.00
9774;BME280;4926;42.670;23.316;2023-04-09T06:10:39;94774.63;;;7.68;100.00
9774;BME280;4926;42.670;23.316;2023-04-09T06:13:06;94784.22;;;8.05;100.00
9774;BME280;4926;42.670;23.316;2023-04-09T06:15:36;94782.34;;;8.05;100.00
9774;BME280;4926;42.670;23.316;2023-04-09T06:18:03;94782.34;;;8.10;100.00
9774;BME280;4926;42.670;23.316;2023-04-09T06:20:29;94768.53;;;7.98;100.00
9774;BME280;4926;42.670;23.316;2023-04-09T06:22:56;94785.28;;;8.24;100.00
9774;BME280;4926;42.670;23.316;2023-04-09T06:25:23;94785.78;;;8.01;100.00
9774;BME280;4926;42.670;23.316;2023-04-09T06:27:52;94774.66;;;7.99;100.00
9774;BME280;4926;42.670;23.316;2023-04-09T06:30:18;94776.25;;;8.20;100.00
9774;BME280;4926;42.670;23.316;2023-04-09T06:32:49;94782.09;;;8.17;100.00
9774;BME280;4926;42.670;23.316;2023-04-09T06:35:17;94779.16;;;8.18;100.00
9774;BME280;4926;42.670;23.316;2023-04-09T06:37:46;94783.13;;;8.21;100.00
9774;BME280;4926;42.670;23.316;2023-04-09T06:40:13;94788.97;;;8.33;100.00
9774;BME280;4926;42.670;23.316;2023-04-09T06:42:39;94788.44;;;8.51;100.00
9774;BME280;4926;42.670;23.316;2023-04-09T06:45:09;94795.25;;;8.82;100.00
9774;BME280;4926;42.670;23.316;2023-04-09T06:47:36;94802.63;;;9.10;100.00
9774;BME280;4926;42.670;23.316;2023-04-09T06:50:05;94794.84;;;9.29;100.00
9774;BME280;4926;42.670;23.316;2023-04-09T06:52:32;94776.34;;;9.09;100.00
9774;BME280;4926;42.670;23.316;2023-04-09T06:54:59;94809.16;;;9.33;100.00
9774;BME280;4926;42.670;23.316;2023-04-09T06:57:31;94803.13;;;9.17;96.35
9774;BME280;4926;42.670;23.316;2023-04-09T06:59:57;94800.56;;;8.97;98.44
9774;BME280;4926;42.670;23.316;2023-04-09T07:02:24;94802.03;;;9.28;99.06
9774;BME280;4926;42.670;23.316;2023-04-09T07:04:51;94801.09;;;9.58;97.21
9774;BME280;4926;42.670;23.316;2023-04-09T07:07:19;94792.50;;;10.15;97.18
9774;BME280;4926;42.670;23.316;2023-04-09T07:09:47;94791.47;;;10.10;89.59
9774;BME280;4926;42.670;23.316;2023-04-09T07:12:27;94795.38;;;9.79;88.79
9774;BME280;4926;42.670;23.316;2023-04-09T07:14:56;94798.91;;;9.65;89.83
9774;BME280;4926;42.670;23.316;2023-04-09T07:17:23;94807.22;;;9.48;91.25
9774;BME280;4926;42.670;23.316;2023-04-09T07:19:50;94823.34;;;9.13;93.07
9774;BME280;4926;42.670;23.316;2023-04-09T07:22:16;94811.75;;;8.79;95.35
9774;BME280;4926;42.670;23.316;2023-04-09T07:24:44;94814.38;;;8.84;94.52
9774;BME280;4926;42.670;23.316;2023-04-09T07:27:19;94807.00;;;8.66;96.19
9774;BME280;4926;42.670;23.316;2023-04-09T07:29:46;94799.03;;;8.71;97.13
9774;BME280;4926;42.670;23.316;2023-04-09T07:32:13;94799.69;;;9.12;94.50
9774;BME280;4926;42.670;23.316;2023-04-09T07:34:43;94800.53;;;9.02;91.01
9774;BME280;4926;42.670;23.316;2023-04-09T07:37:17;94797.75;;;9.27;90.23
9774;BME280;4926;42.670;23.316;2023-04-09T07:39:46;94799.38;;;9.23;90.03
9774;BME280;4926;42.670;23.316;2023-04-09T07:42:13;94809.34;;;9.56;89.91
9774;BME280;4926;42.670;23.316;2023-04-09T07:44:39;94792.47;;;10.20;88.62
9774;BME280;4926;42.670;23.316;2023-04-09T07:47:06;94793.97;;;10.31;85.19
9774;BME280;4926;42.670;23.316;2023-04-09T07:49:34;94793.84;;;10.12;85.37
9774;BME280;4926;42.670;23.316;2023-04-09T07:52:02;94799.03;;;10.61;85.95
9774;BME280;4926;42.670;23.316;2023-04-09T07:54:29;94792.78;;;10.99;81.50
9774;BME280;4926;42.670;23.316;2023-04-09T07:56:58;94795.47;;;11.41;80.22
9774;BME280;4926;42.670;23.316;2023-04-09T07:59:25;94790.66;;;11.67;78.62
9774;BME280;4926;42.670;23.316;2023-04-09T08:01:53;94791.31;;;10.88;78.78
9774;BME280;4926;42.670;23.316;2023-04-09T08:04:19;94799.47;;;10.68;79.20
9774;BME280;4926;42.670;23.316;2023-04-09T08:06:46;94806.66;;;10.67;79.59
9774;BME280;4926;42.670;23.316;2023-04-09T08:09:15;94801.38;;;10.91;78.76
9774;BME280;4926;42.670;23.316;2023-04-09T08:11:44;94799.56;;;10.86;79.38
9774;BME280;4926;42.670;23.316;2023-04-09T08:14:15;94812.91;;;11.10;77.82
9774;BME280;4926;42.670;23.316;2023-04-09T08:16:44;94809.09;;;10.69;77.19
9774;BME280;4926;42.670;23.316;2023-04-09T08:19:14;94805.03;;;10.43;78.50
9774;BME280;4926;42.670;23.316;2023-04-09T08:21:42;94801.13;;;10.64;77.54
9774;BME280;4926;42.670;23.316;2023-04-09T08:24:09;94805.22;;;10.80;79.21
9774;BME280;4926;42.670;23.316;2023-04-09T08:26:37;94804.09;;;10.86;77.23
9774;BME280;4926;42.670;23.316;2023-04-09T08:29:04;94803.41;;;10.99;75.40
9774;BME280;4926;42.670;23.316;2023-04-09T08:31:32;94814.47;;;10.59;77.80
9774;BME280;4926;42.670;23.316;2023-04-09T08:33:59;94813.56;;;10.97;78.40
9774;BME280;4926;42.670;23.316;2023-04-09T08:36:25;94800.47;;;11.00;75.62
9774;BME280;4926;42.670;23.316;2023-04-09T08:38:52;94823.06;;;10.51;78.99
9774;BME280;4926;42.670;23.316;2023-04-09T08:41:21;94821.53;;;10.73;77.92
9774;BME280;4926;42.670;23.316;2023-04-09T08:43:50;94814.16;;;10.65;79.62
9774;BME280;4926;42.670;23.316;2023-04-09T08:46:18;94821.66;;;10.30;80.82
9774;BME280;4926;42.670;23.316;2023-04-09T08:48:47;94842.03;;;9.57;85.77
9774;BME280;4926;42.670;23.316;2023-04-09T08:51:14;94833.03;;;9.96;85.82
9774;BME280;4926;42.670;23.316;2023-04-09T08:53:43;94820.28;;;10.66;83.51
9774;BME280;4926;42.670;23.316;2023-04-09T08:56:14;94813.63;;;10.35;82.57
9774;BME280;4926;42.670;23.316;2023-04-09T08:58:51;94826.56;;;10.46;82.80
9774;BME280;4926;42.670;23.316;2023-04-09T09:01:19;94825.63;;;9.88;84.40
9774;BME280;4926;42.670;23.316;2023-04-09T09:03:55;94820.75;;;10.05;84.56
9774;BME280;4926;42.670;23.316;2023-04-09T09:06:24;94820.56;;;10.31;85.34
9774;BME280;4926;42.670;23.316;2023-04-09T09:09:03;94805.78;;;10.77;80.90
9774;BME280;4926;42.670;23.316;2023-04-09T09:11:30;94801.06;;;11.21;80.04
9774;BME280;4926;42.670;23.316;2023-04-09T09:14:03;94783.63;;;11.52;77.65
9774;BME280;4926;42.670;23.316;2023-04-09T09:16:33;94781.56;;;11.86;75.98
9774;BME280;4926;42.670;23.316;2023-04-09T09:19:05;94783.78;;;11.79;72.91
9774;BME280;4926;42.670;23.316;2023-04-09T09:21:35;94798.41;;;11.21;77.06
9774;BME280;4926;42.670;23.316;2023-04-09T09:24:15;94782.94;;;11.84;76.01
9774;BME280;4926;42.670;23.316;2023-04-09T09:26:42;94782.88;;;11.70;74.33
9774;BME280;4926;42.670;23.316;2023-04-09T09:29:09;94771.63;;;12.10;73.38
9774;BME280;4926;42.670;23.316;2023-04-09T09:31:45;94769.00;;;12.05;71.50
9774;BME280;4926;42.670;23.316;2023-04-09T09:34:15;94762.22;;;11.57;72.48
9774;BME280;4926;42.670;23.316;2023-04-09T09:36:42;94768.44;;;11.71;72.49
9774;BME280;4926;42.670;23.316;2023-04-09T09:39:10;94745.31;;;11.85;71.80
9774;BME280;4926;42.670;23.316;2023-04-09T09:41:37;94767.72;;;11.84;72.39
9774;BME280;4926;42.670;23.316;2023-04-09T09:44:05;94765.00;;;12.40;70.74
9774;BME280;4926;42.670;23.316;2023-04-09T09:46:34;94757.84;;;12.81;68.22
9774;BME280;4926;42.670;23.316;2023-04-09T09:49:01;94759.34;;;11.72;70.92
9774;BME280;4926;42.670;23.316;2023-04-09T09:51:31;94768.28;;;11.20;72.03
9774;BME280;4926;42.670;23.316;2023-04-09T09:53:59;94757.28;;;11.27;71.67
9774;BME280;4926;42.670;23.316;2023-04-09T09:56:30;94748.31;;;11.60;71.45
9774;BME280;4926;42.670;23.316;2023-04-09T09:59:05;94751.75;;;12.49;69.32
9774;BME280;4926;42.670;23.316;2023-04-09T10:01:34;94728.59;;;13.03;65.42
9774;BME280;4926;42.670;23.316;2023-04-09T10:04:03;94736.94;;;12.56;66.92
9774;BME280;4926;42.670;23.316;2023-04-09T10:06:33;94719.13;;;12.65;64.81
9774;BME280;4926;42.670;23.316;2023-04-09T10:09:11;94708.75;;;12.77;63.89
9774;BME280;4926;42.670;23.316;2023-04-09T10:11:38;94729.91;;;12.60;62.78
9774;BME280;4926;42.670;23.316;2023-04-09T10:14:10;94717.78;;;12.81;63.14
9774;BME280;4926;42.670;23.316;2023-04-09T10:16:36;94713.63;;;12.89;61.42
9774;BME280;4926;42.670;23.316;2023-04-09T10:19:03;94724.84;;;12.31;64.38
9774;BME280;4926;42.670;23.316;2023-04-09T10:21:39;94719.53;;;12.72;63.13
9774;BME280;4926;42.670;23.316;2023-04-09T10:24:08;94711.88;;;13.11;61.61
9774;BME280;4926;42.670;23.316;2023-04-09T10:26:41;94695.13;;;13.91;60.34
9774;BME280;4926;42.670;23.316;2023-04-09T10:29:10;94700.25;;;13.43;59.57
9774;BME280;4926;42.670;23.316;2023-04-09T10:31:50;94703.91;;;12.93;60.63
9774;BME280;4926;42.670;23.316;2023-04-09T10:34:20;94706.28;;;12.81;60.81
9774;BME280;4926;42.670;23.316;2023-04-09T10:36:55;94705.72;;;13.11;60.84
9774;BME280;4926;42.670;23.316;2023-04-09T10:39:25;94688.44;;;13.44;60.21
9774;BME280;4926;42.670;23.316;2023-04-09T10:41:53;94681.94;;;13.23;58.71
9774;BME280;4926;42.670;23.316;2023-04-09T10:44:24;94680.38;;;13.22;59.59
9774;BME280;4926;42.670;23.316;2023-04-09T10:46:52;94667.59;;;13.90;58.03
9774;BME280;4926;42.670;23.316;2023-04-09T10:49:21;94672.03;;;13.95;57.27
9774;BME280;4926;42.670;23.316;2023-04-09T10:52:01;94663.56;;;14.01;57.09
9774;BME280;4926;42.670;23.316;2023-04-09T10:54:47;94668.06;;;13.70;58.44
9774;BME280;4926;42.670;23.316;2023-04-09T10:57:18;94659.16;;;13.61;57.56
9774;BME280;4926;42.670;23.316;2023-04-09T10:59:47;94661.56;;;13.27;59.17
9774;BME280;4926;42.670;23.316;2023-04-09T11:05:26;94683.03;;;12.95;60.97
9774;BME280;4926;42.670;23.316;2023-04-09T11:08:03;94681.47;;;12.80;62.06
9774;BME280;4926;42.670;23.316;2023-04-09T11:10:30;94673.06;;;12.87;61.59
9774;BME280;4926;42.670;23.316;2023-04-09T11:12:57;94666.03;;;12.91;61.09
9774;BME280;4926;42.670;23.316;2023-04-09T11:15:24;94673.03;;;12.60;61.42
9774;BME280;4926;42.670;23.316;2023-04-09T11:17:51;94672.97;;;12.78;61.56
9774;BME280;4926;42.670;23.316;2023-04-09T11:20:19;94675.44;;;13.02;61.37
9774;BME280;4926;42.670;23.316;2023-04-09T11:22:48;94678.09;;;12.61;61.64
9774;BME280;4926;42.670;23.316;2023-04-09T11:25:19;94682.66;;;12.15;64.54
9774;BME280;4926;42.670;23.316;2023-04-09T11:27:49;94688.91;;;11.92;65.28
9774;BME280;4926;42.670;23.316;2023-04-09T11:30:16;94687.28;;;12.09;67.69
9774;BME280;4926;42.670;23.316;2023-04-09T11:32:43;94679.72;;;12.30;65.12
9774;BME280;4926;42.670;23.316;2023-04-09T11:35:11;94676.16;;;11.89;66.23
9774;BME280;4926;42.670;23.316;2023-04-09T11:37:42;94684.38;;;11.92;68.81
9774;BME280;4926;42.670;23.316;2023-04-09T11:40:14;94684.22;;;12.02;69.72
9774;BME280;4926;42.670;23.316;2023-04-09T11:42:43;94683.78;;;11.95;69.83
9774;BME280;4926;42.670;23.316;2023-04-09T11:45:11;94669.38;;;11.96;66.27
9774;BME280;4926;42.670;23.316;2023-04-09T11:47:39;94673.63;;;11.97;66.15
9774;BME280;4926;42.670;23.316;2023-04-09T11:50:09;94676.56;;;11.82;66.21
9774;BME280;4926;42.670;23.316;2023-04-09T11:52:40;94669.09;;;11.79;63.90
9774;BME280;4926;42.670;23.316;2023-04-09T11:55:10;94663.16;;;11.69;64.10
9774;BME280;4926;42.670;23.316;2023-04-09T11:57:39;94667.53;;;11.78;64.12
9774;BME280;4926;42.670;23.316;2023-04-09T12:00:10;94651.94;;;11.85;63.28
9774;BME280;4926;42.670;23.316;2023-04-09T12:02:44;94659.28;;;11.93;64.71
9774;BME280;4926;42.670;23.316;2023-04-09T12:05:19;94647.44;;;11.99;63.42
9774;BME280;4926;42.670;23.316;2023-04-09T12:07:46;94653.69;;;12.08;63.21
9774;BME280;4926;42.670;23.316;2023-04-09T12:10:12;94665.75;;;12.19;65.83
9774;BME280;4926;42.670;23.316;2023-04-09T12:12:43;94661.34;;;12.28;63.82
9774;BME280;4926;42.670;23.316;2023-04-09T12:15:17;94653.25;;;12.33;64.05
9774;BME280;4926;42.670;23.316;2023-04-09T12:17:48;94662.03;;;12.20;66.71
9774;BME280;4926;42.670;23.316;2023-04-09T12:20:29;94660.91;;;12.08;67.60
9774;BME280;4926;42.670;23.316;2023-04-09T12:22:57;94663.69;;;11.84;68.52
9774;BME280;4926;42.670;23.316;2023-04-09T12:25:25;94673.03;;;12.00;70.42
9774;BME280;4926;42.670;23.316;2023-04-09T12:27:51;94664.72;;;12.34;70.11
9774;BME280;4926;42.670;23.316;2023-04-09T12:30:20;94659.22;;;12.71;67.16
9774;BME280;4926;42.670;23.316;2023-04-09T12:32:46;94648.19;;;13.00;65.39
9774;BME280;4926;42.670;23.316;2023-04-09T12:35:13;94630.66;;;13.21;61.18
9774;BME280;4926;42.670;23.316;2023-04-09T12:37:43;94625.84;;;13.09;62.04
9774;BME280;4926;42.670;23.316;2023-04-09T12:40:13;94624.53;;;13.20;61.53
9774;BME280;4926;42.670;23.316;2023-04-09T12:42:40;94605.97;;;13.02;60.25
9774;BME280;4926;42.670;23.316;2023-04-09T12:45:08;94620.44;;;13.36;60.50
9774;BME280;4926;42.670;23.316;2023-04-09T12:47:37;94609.66;;;13.28;58.68
9774;BME280;4926;42.670;23.316;2023-04-09T12:50:06;94609.00;;;13.09;59.29
9774;BME280;4926;42.670;23.316;2023-04-09T12:52:33;94605.38;;;13.05;58.61
9774;BME280;4926;42.670;23.316;2023-04-09T12:55:00;94593.47;;;12.97;58.93
9774;BME280;4926;42.670;23.316;2023-04-09T12:57:27;94609.50;;;12.97;58.91
9774;BME280;4926;42.670;23.316;2023-04-09T12:59:54;94605.38;;;13.05;59.33
9774;BME280;4926;42.670;23.316;2023-04-09T13:02:21;94601.88;;;13.18;58.69
9774;BME280;4926;42.670;23.316;2023-04-09T13:04:49;94590.25;;;13.36;58.10
9774;BME280;4926;42.670;23.316;2023-04-09T13:07:19;94592.66;;;13.24;57.97
9774;BME280;4926;42.670;23.316;2023-04-09T13:09:47;94591.56;;;13.25;58.50
9774;BME280;4926;42.670;23.316;2023-04-09T13:12:16;94584.25;;;13.17;58.55
9774;BME280;4926;42.670;23.316;2023-04-09T13:14:46;94595.47;;;12.92;57.98
9774;BME280;4926;42.670;23.316;2023-04-09T13:17:14;94590.19;;;12.65;56.15
9774;BME280;4926;42.670;23.316;2023-04-09T13:19:41;94586.00;;;12.86;57.40
9774;BME280;4926;42.670;23.316;2023-04-09T13:22:09;94575.38;;;13.08;56.29
9774;BME280;4926;42.670;23.316;2023-04-09T13:24:36;94581.72;;;13.12;56.65